Time;durP1;ratioP1;P1;durP2;ratioP2;P2;SDS_P1;SDS_P2;PMS_P1;PMS_P2;Temp;Humidity;BMP_temperature;BMP_pressure;BME280_temperature;BME280_humidity;BME280_pressure;Samples;Min_cycle;Max_cycle;Signal;HPM_P1;HPM_P2
2023/07/20 00:02:08;;;;;;;6.47;2.17;;;;;;;;;;5036631;28;20457;-69
2023/07/20 00:04:34;;;;;;;1.87;1.77;;;;;;;;;;5036586;28;20419;-70
2023/07/20 00:07:02;;;;;;;6.33;2.50;;;;;;;;;;5036500;28;20426;-69
2023/07/20 00:09:28;;;;;;;2.77;2.57;;;;;;;;;;5036280;28;20424;-70
2023/07/20 00:11:54;;;;;;;1.80;1.73;;;;;;;;;;5036288;28;20787;-70
2023/07/20 00:14:21;;;;;;;4.33;2.47;;;;;;;;;;5036424;28;20419;-70
2023/07/20 00:16:55;;;;;;;2.10;1.90;;;;;;;;;;5036145;28;20834;-69
2023/07/20 00:19:22;;;;;;;11.43;2.30;;;;;;;;;;5036659;28;20411;-70
2023/07/20 00:21:48;;;;;;;3.23;2.30;;;;;;;;;;5036171;28;20419;-69
2023/07/20 00:24:14;;;;;;;2.43;2.33;;;;;;;;;;5036498;28;20427;-70
2023/07/20 00:26:40;;;;;;;3.43;2.50;;;;;;;;;;5036259;28;20430;-70
2023/07/20 00:29:06;;;;;;;1.80;1.80;;;;;;;;;;5051493;28;20439;-70
2023/07/20 00:31:32;;;;;;;3.10;1.90;;;;;;;;;;5036080;28;20891;-70
2023/07/20 00:33:58;;;;;;;2.97;2.60;;;;;;;;;;5036220;28;20486;-70
2023/07/20 00:36:24;;;;;;;2.03;1.93;;;;;;;;;;5036161;28;20415;-69
2023/07/20 00:38:50;;;;;;;2.30;2.20;;;;;;;;;;5036407;28;20902;-70
2023/07/20 00:41:16;;;;;;;5.90;2.33;;;;;;;;;;5035845;28;20416;-70
2023/07/20 00:43:41;;;;;;;3.60;2.47;;;;;;;;;;5035809;28;20469;-69
2023/07/20 00:46:08;;;;;;;2.27;2.17;;;;;;;;;;5035863;28;20418;-70
2023/07/20 00:48:34;;;;;;;6.30;2.10;;;;;;;;;;5036234;28;20878;-70
2023/07/20 00:51:01;;;;;;;2.13;2.03;;;;;;;;;;5035971;28;20446;-70
2023/07/20 00:53:27;;;;;;;7.70;2.50;;;;;;;;;;5034098;28;20486;-70
2023/07/20 00:55:53;;;;;;;2.70;2.60;;;;;;;;;;5035557;28;20427;-69
2023/07/20 00:58:19;;;;;;;1.70;1.70;;;;;;;;;;5035700;28;20423;-70
2023/07/20 01:00:46;;;;;;;2.43;2.23;;;;;;;;;;5035740;28;20423;-71
2023/07/20 01:03:12;;;;;;;4.90;2.40;;;;;;;;;;5035981;28;20423;-70
2023/07/20 01:05:46;;;;;;;2.10;2.07;;;;;;;;;;5035892;28;20911;-70
2023/07/20 01:08:16;;;;;;;6.83;2.40;;;;;;;;;;5035439;28;20477;-69
2023/07/20 01:10:49;;;;;;;3.30;2.60;;;;;;;;;;5035837;28;20462;-70
2023/07/20 01:13:15;;;;;;;3.20;2.67;;;;;;;;;;5035151;28;20966;-70
2023/07/20 01:15:41;;;;;;;2.30;2.07;;;;;;;;;;5035376;28;20427;-70
2023/07/20 01:18:07;;;;;;;4.73;3.10;;;;;;;;;;5035201;28;20526;-69
2023/07/20 01:20:33;;;;;;;1.93;1.93;;;;;;;;;;5035183;28;20774;-70
2023/07/20 01:23:02;;;;;;;3.30;3.07;;;;;;;;;;5035125;28;20455;-69
2023/07/20 01:25:35;;;;;;;3.80;2.63;;;;;;;;;;5035807;28;20408;-69
2023/07/20 01:28:20;;;;;;;4.53;2.27;;;;;;;;;;5035231;28;20423;-69
2023/07/20 01:31:04;;;;;;;3.97;2.47;;;;;;;;;;5035033;28;20413;-70
2023/07/20 01:33:32;;;;;;;3.00;2.53;;;;;;;;;;5035052;28;20521;-70
2023/07/20 01:35:59;;;;;;;5.00;2.47;;;;;;;;;;5034695;28;20446;-70
2023/07/20 01:38:25;;;;;;;2.20;2.00;;;;;;;;;;5035025;28;20534;-70
2023/07/20 01:40:52;;;;;;;3.23;3.03;;;;;;;;;;5035082;28;20426;-70
2023/07/20 01:43:18;;;;;;;2.80;2.50;;;;;;;;;;5034761;28;20512;-70
2023/07/20 01:45:44;;;;;;;2.53;2.43;;;;;;;;;;5034904;28;20420;-69
2023/07/20 01:48:11;;;;;;;2.83;2.40;;;;;;;;;;5034860;28;20423;-69
2023/07/20 01:50:37;;;;;;;2.87;2.67;;;;;;;;;;5034570;28;20415;-70
2023/07/20 01:53:03;;;;;;;2.37;2.27;;;;;;;;;;5034472;28;20487;-70
2023/07/20 01:55:29;;;;;;;3.53;2.73;;;;;;;;;;5034612;28;20419;-70
2023/07/20 01:57:56;;;;;;;3.80;3.27;;;;;;;;;;5034448;28;20420;-70
2023/07/20 02:00:24;;;;;;;4.00;2.30;;;;;;;;;;5034626;28;20426;-70
2023/07/20 02:02:50;;;;;;;2.70;2.60;;;;;;;;;;5034632;28;20501;-70
2023/07/20 02:05:16;;;;;;;6.33;3.00;;;;;;;;;;5049125;28;20883;-69
2023/07/20 02:07:42;;;;;;;3.10;2.70;;;;;;;;;;5034574;28;20760;-70
2023/07/20 02:10:08;;;;;;;9.27;3.07;;;;;;;;;;5034467;28;20424;-70
2023/07/20 02:12:34;;;;;;;2.77;2.67;;;;;;;;;;5034394;28;20458;-69
2023/07/20 02:15:01;;;;;;;3.00;2.43;;;;;;;;;;5034431;28;20420;-69
2023/07/20 02:17:27;;;;;;;6.03;3.47;;;;;;;;;;5049391;28;20851;-70
2023/07/20 02:19:54;;;;;;;2.60;2.40;;;;;;;;;;5034574;28;20423;-70
2023/07/20 02:22:20;;;;;;;4.63;2.87;;;;;;;;;;5034102;28;20459;-70
2023/07/20 02:24:46;;;;;;;3.20;2.93;;;;;;;;;;5033893;28;20930;-70
2023/07/20 02:27:12;;;;;;;2.60;2.50;;;;;;;;;;5034228;28;20407;-70
2023/07/20 02:29:38;;;;;;;4.70;2.80;;;;;;;;;;5034189;28;20434;-70
2023/07/20 02:32:05;;;;;;;2.93;2.23;;;;;;;;;;5033991;28;20463;-71
2023/07/20 02:34:31;;;;;;;4.90;2.50;;;;;;;;;;5034034;28;20497;-70
2023/07/20 02:36:57;;;;;;;4.63;2.70;;;;;;;;;;5034058;28;20891;-69
2023/07/20 02:39:23;;;;;;;2.87;2.77;;;;;;;;;;5034179;28;20804;-70
2023/07/20 02:41:50;;;;;;;2.57;2.40;;;;;;;;;;5033945;28;20422;-70
2023/07/20 02:44:16;;;;;;;8.13;2.93;;;;;;;;;;5033444;28;20453;-70
2023/07/20 02:46:42;;;;;;;2.50;2.40;;;;;;;;;;5033524;28;20938;-70
2023/07/20 02:49:08;;;;;;;2.60;2.50;;;;;;;;;;5034123;28;20415;-69
2023/07/20 02:51:34;;;;;;;3.13;2.93;;;;;;;;;;5033724;28;20399;-70
2023/07/20 02:54:01;;;;;;;3.13;2.60;;;;;;;;;;5033385;28;21020;-69
2023/07/20 02:56:27;;;;;;;2.90;2.80;;;;;;;;;;5033425;28;20414;-70
2023/07/20 02:58:54;;;;;;;2.80;2.57;;;;;;;;;;5033460;28;20451;-69
2023/07/20 03:01:20;;;;;;;8.60;2.60;;;;;;;;;;5033534;28;20407;-69
2023/07/20 03:03:46;;;;;;;8.80;3.10;;;;;;;;;;5033261;28;20415;-69
2023/07/20 03:06:14;;;;;;;2.20;2.10;;;;;;;;;;5033652;28;20419;-70
2023/07/20 03:08:41;;;;;;;2.67;2.57;;;;;;;;;;5033292;28;20423;-69
2023/07/20 03:11:07;;;;;;;5.20;3.00;;;;;;;;;;5033512;28;20886;-70
2023/07/20 03:13:33;;;;;;;2.90;2.80;;;;;;;;;;5033407;28;20467;-69
2023/07/20 03:15:59;;;;;;;2.63;2.60;;;;;;;;;;5032699;28;20427;-69
2023/07/20 03:18:25;;;;;;;6.67;2.83;;;;;;;;;;5033397;28;20930;-70
2023/07/20 03:20:51;;;;;;;5.03;2.67;;;;;;;;;;5033401;28;20466;-70
2023/07/20 03:23:17;;;;;;;3.47;3.27;;;;;;;;;;5033105;28;20458;-69
2023/07/20 03:25:43;;;;;;;2.80;2.70;;;;;;;;;;5033116;28;20414;-70
2023/07/20 03:28:08;;;;;;;2.90;2.80;;;;;;;;;;5033301;28;20899;-70
2023/07/20 03:30:35;;;;;;;3.37;3.07;;;;;;;;;;5033376;28;20771;-69
2023/07/20 03:33:01;;;;;;;3.77;2.67;;;;;;;;;;5033171;28;20542;-69
2023/07/20 03:35:27;;;;;;;2.70;2.60;;;;;;;;;;5033023;28;20474;-69
2023/07/20 03:37:53;;;;;;;2.83;2.63;;;;;;;;;;5033061;28;20427;-70
2023/07/20 03:40:19;;;;;;;2.80;2.60;;;;;;;;;;5032903;28;20514;-70
2023/07/20 03:42:45;;;;;;;2.93;2.73;;;;;;;;;;5032961;28;20457;-69
2023/07/20 03:45:11;;;;;;;2.70;2.57;;;;;;;;;;5033117;28;20399;-70
2023/07/20 03:47:37;;;;;;;2.80;2.70;;;;;;;;;;5032892;28;20419;-69
2023/07/20 03:50:05;;;;;;;8.13;3.10;;;;;;;;;;5033482;28;20407;-70
2023/07/20 03:52:31;;;;;;;2.73;2.60;;;;;;;;;;5032499;28;20982;-70
2023/07/20 03:54:57;;;;;;;4.47;4.17;;;;;;;;;;5033142;28;20414;-69
2023/07/20 03:57:23;;;;;;;8.73;2.50;;;;;;;;;;5033406;28;20539;-70
2023/07/20 03:59:49;;;;;;;2.40;2.30;;;;;;;;;;5032789;28;20426;-69
2023/07/20 04:02:15;;;;;;;5.57;2.90;;;;;;;;;;5032605;28;20412;-69
2023/07/20 04:04:41;;;;;;;8.67;2.63;;;;;;;;;;5032863;28;20925;-70
2023/07/20 04:07:07;;;;;;;2.03;2.00;;;;;;;;;;5032505;28;20447;-70
2023/07/20 04:09:33;;;;;;;4.03;3.33;;;;;;;;;;5032661;28;20572;-69
2023/07/20 04:12:00;;;;;;;3.10;2.90;;;;;;;;;;5032377;28;20426;-69
2023/07/20 04:14:26;;;;;;;3.10;2.80;;;;;;;;;;5047836;28;20799;-70
2023/07/20 04:16:52;;;;;;;2.33;2.33;;;;;;;;;;5032782;28;20422;-69
2023/07/20 04:19:18;;;;;;;4.17;3.60;;;;;;;;;;5032487;28;20955;-69
2023/07/20 04:21:44;;;;;;;7.77;2.80;;;;;;;;;;5032689;28;20499;-69
2023/07/20 04:24:10;;;;;;;2.40;2.40;;;;;;;;;;5032411;28;20512;-69
2023/07/20 04:26:36;;;;;;;2.40;2.20;;;;;;;;;;5032751;28;20769;-70
2023/07/20 04:29:03;;;;;;;2.70;2.60;;;;;;;;;;5051430;28;20463;-70
2023/07/20 04:31:32;;;;;;;7.00;2.87;;;;;;;;;;5036323;28;20513;-68
2023/07/20 04:33:58;;;;;;;20.23;3.50;;;;;;;;;;5036772;28;20474;-69
2023/07/20 04:36:24;;;;;;;3.40;3.20;;;;;;;;;;5036081;28;20419;-70
2023/07/20 04:38:50;;;;;;;2.87;2.73;;;;;;;;;;5036290;28;20431;-69
2023/07/20 04:41:16;;;;;;;2.43;2.33;;;;;;;;;;5036288;28;20419;-70
2023/07/20 04:43:45;;;;;;;2.17;2.07;;;;;;;;;;5035955;28;20428;-70
2023/07/20 04:46:11;;;;;;;6.90;2.57;;;;;;;;;;5035860;28;20422;-70
2023/07/20 04:48:37;;;;;;;6.27;3.60;;;;;;;;;;5036150;28;20467;-69
2023/07/20 04:51:04;;;;;;;8.90;2.70;;;;;;;;;;5036078;28;20874;-68
2023/07/20 04:53:30;;;;;;;3.07;2.97;;;;;;;;;;5035554;28;20494;-69
2023/07/20 04:55:57;;;;;;;2.17;2.10;;;;;;;;;;5050896;28;20911;-70
2023/07/20 04:58:23;;;;;;;4.43;2.20;;;;;;;;;;5035685;28;20500;-70
2023/07/20 05:00:49;;;;;;;2.43;2.23;;;;;;;;;;5035657;28;20412;-69
2023/07/20 05:03:16;;;;;;;4.03;3.40;;;;;;;;;;5035533;28;20450;-69
2023/07/20 05:05:42;;;;;;;12.20;3.17;;;;;;;;;;5036030;28;20411;-70
2023/07/20 05:08:08;;;;;;;2.60;2.50;;;;;;;;;;5035516;28;20767;-69
2023/07/20 05:10:34;;;;;;;3.67;2.40;;;;;;;;;;5050741;28;20415;-70
2023/07/20 05:13:00;;;;;;;2.23;2.23;;;;;;;;;;5035855;28;20483;-71
2023/07/20 05:15:26;;;;;;;3.50;3.17;;;;;;;;;;5035252;28;20412;-70
2023/07/20 05:17:52;;;;;;;3.90;2.90;;;;;;;;;;5035529;28;20436;-70
2023/07/20 05:20:18;;;;;;;3.80;3.40;;;;;;;;;;5035568;28;20424;-70
2023/07/20 05:22:44;;;;;;;3.07;2.90;;;;;;;;;;5035190;28;20457;-70
2023/07/20 05:25:11;;;;;;;3.07;2.77;;;;;;;;;;5035179;28;20415;-70
2023/07/20 05:27:37;;;;;;;3.80;3.50;;;;;;;;;;5036397;28;20436;-70
2023/07/20 05:30:03;;;;;;;5.37;2.80;;;;;;;;;;5035081;28;20412;-70
2023/07/20 05:32:29;;;;;;;3.77;3.47;;;;;;;;;;5034913;28;20946;-70
2023/07/20 05:34:55;;;;;;;4.50;2.80;;;;;;;;;;5035242;28;20415;-70
2023/07/20 05:37:21;;;;;;;4.10;3.80;;;;;;;;;;5034903;28;20477;-70
2023/07/20 05:39:47;;;;;;;2.50;2.40;;;;;;;;;;5034382;28;20434;-68
2023/07/20 05:42:13;;;;;;;5.07;2.90;;;;;;;;;;5035172;28;20514;-71
2023/07/20 05:44:40;;;;;;;15.87;2.97;;;;;;;;;;5034670;28;20415;-68
2023/07/20 05:47:06;;;;;;;4.53;2.30;;;;;;;;;;5034292;28;20427;-64
2023/07/20 05:49:32;;;;;;;2.50;2.40;;;;;;;;;;5034439;28;20478;-65
2023/07/20 05:51:58;;;;;;;3.00;2.90;;;;;;;;;;5034989;28;20427;-64
2023/07/20 05:54:25;;;;;;;2.43;2.30;;;;;;;;;;5034252;28;20935;-64
2023/07/20 05:56:51;;;;;;;5.30;3.10;;;;;;;;;;5034768;28;20426;-72
2023/07/20 05:59:17;;;;;;;3.30;3.10;;;;;;;;;;5034509;28;20423;-70
2023/07/20 06:01:44;;;;;;;3.00;2.80;;;;;;;;;;5034583;28;20865;-70
2023/07/20 06:04:10;;;;;;;3.80;2.70;;;;;;;;;;5034427;28;20466;-64
2023/07/20 06:06:36;;;;;;;5.17;2.90;;;;;;;;;;5034501;28;20781;-63
2023/07/20 06:09:09;;;;;;;9.43;4.87;;;;;;;;;;5034216;28;20442;-63
2023/07/20 06:11:35;;;;;;;3.70;2.43;;;;;;;;;;5034874;28;20400;-68
2023/07/20 06:14:01;;;;;;;3.20;3.07;;;;;;;;;;5049566;28;20497;-65
2023/07/20 06:16:27;;;;;;;4.20;3.20;;;;;;;;;;5034003;28;20506;-72
2023/07/20 06:18:53;;;;;;;4.30;2.93;;;;;;;;;;5033957;28;20419;-63
2023/07/20 06:21:19;;;;;;;4.87;2.77;;;;;;;;;;5033859;28;20461;-61
2023/07/20 06:23:46;;;;;;;4.93;3.57;;;;;;;;;;5034251;28;20423;-62
2023/07/20 06:26:12;;;;;;;4.63;2.30;;;;;;;;;;5033828;28;20477;-69
2023/07/20 06:28:38;;;;;;;2.67;2.57;;;;;;;;;;5033769;28;20474;-72
2023/07/20 06:31:04;;;;;;;5.70;2.77;;;;;;;;;;5033707;28;20419;-68
2023/07/20 06:33:30;;;;;;;3.20;2.43;;;;;;;;;;5033665;28;20982;-70
2023/07/20 06:35:56;;;;;;;3.30;3.20;;;;;;;;;;5033807;28;20469;-66
2023/07/20 06:38:23;;;;;;;6.70;3.63;;;;;;;;;;5033625;28;20431;-62
2023/07/20 06:40:52;;;;;;;3.10;2.80;;;;;;;;;;5033412;28;20410;-62
2023/07/20 06:43:18;;;;;;;6.83;3.30;;;;;;;;;;5033910;28;20188;-70
2023/07/20 06:45:44;;;;;;;2.57;2.47;;;;;;;;;;5034156;28;20893;-70
2023/07/20 06:48:10;;;;;;;3.70;2.70;;;;;;;;;;5033615;28;20430;-72
2023/07/20 06:50:36;;;;;;;2.87;2.67;;;;;;;;;;5033540;28;20447;-62
2023/07/20 06:53:05;;;;;;;10.33;2.50;;;;;;;;;;5033499;28;20582;-61
2023/07/20 06:55:31;;;;;;;3.10;2.90;;;;;;;;;;5033752;28;20423;-62
2023/07/20 06:57:58;;;;;;;2.83;2.73;;;;;;;;;;5033391;28;20547;-62
2023/07/20 07:00:24;;;;;;;3.30;2.83;;;;;;;;;;5033408;28;20426;-62
2023/07/20 07:02:50;;;;;;;2.07;2.00;;;;;;;;;;5033391;28;20752;-63
2023/07/20 07:05:16;;;;;;;3.33;2.90;;;;;;;;;;5033365;28;20474;-63
2023/07/20 07:07:42;;;;;;;2.90;2.80;;;;;;;;;;5048741;28;20431;-65
2023/07/20 07:10:08;;;;;;;4.00;3.60;;;;;;;;;;5033264;28;20514;-66
2023/07/20 07:12:37;;;;;;;3.13;3.00;;;;;;;;;;5033333;28;20942;-68
2023/07/20 07:15:06;;;;;;;3.20;3.00;;;;;;;;;;5033498;28;20423;-62
2023/07/20 07:17:32;;;;;;;2.50;2.50;;;;;;;;;;5033370;28;20493;-61
2023/07/20 07:23:02;;;;;;;18.93;3.00;;;;;;;;;;5033149;28;20395;-62
2023/07/20 07:25:28;;;;;;;3.47;2.77;;;;;;;;;;5033049;28;20879;-63
2023/07/20 07:27:55;;;;;;;2.87;2.67;;;;;;;;;;5033594;28;20419;-65
2023/07/20 07:30:22;;;;;;;8.93;2.80;;;;;;;;;;5033111;28;20670;-62
2023/07/20 07:32:48;;;;;;;3.20;3.03;;;;;;;;;;5032934;28;20517;-62
2023/07/20 07:35:14;;;;;;;2.30;2.10;;;;;;;;;;5033471;28;20435;-62
2023/07/20 07:37:40;;;;;;;2.67;2.47;;;;;;;;;;5033428;28;20786;-65
2023/07/20 07:40:07;;;;;;;3.53;2.77;;;;;;;;;;5048177;28;20922;-67
2023/07/20 07:42:33;;;;;;;2.60;1.97;;;;;;;;;;5033189;28;20423;-66
2023/07/20 07:44:59;;;;;;;3.27;2.53;;;;;;;;;;5033657;28;20469;-65
2023/07/20 07:47:25;;;;;;;3.30;3.10;;;;;;;;;;5033203;28;20411;-70
2023/07/20 07:49:51;;;;;;;1.80;1.80;;;;;;;;;;5032764;28;20930;-69
2023/07/20 07:52:17;;;;;;;5.60;2.33;;;;;;;;;;5032725;28;20813;-69
2023/07/20 07:54:43;;;;;;;6.63;2.57;;;;;;;;;;5032596;28;20522;-69
2023/07/20 07:57:09;;;;;;;2.80;2.60;;;;;;;;;;5032747;28;20422;-69
2023/07/20 07:59:37;;;;;;;11.03;3.13;;;;;;;;;;5032683;28;20420;-71
2023/07/20 08:02:04;;;;;;;5.13;3.63;;;;;;;;;;5033295;28;20907;-69
2023/07/20 08:04:30;;;;;;;3.73;2.63;;;;;;;;;;5036487;28;20422;-70
2023/07/20 08:06:57;;;;;;;8.27;2.50;;;;;;;;;;5036941;28;20411;-69
2023/07/20 08:09:23;;;;;;;2.20;2.20;;;;;;;;;;5036774;28;20923;-69
2023/07/20 08:11:49;;;;;;;13.17;2.23;;;;;;;;;;5036680;28;20426;-69
2023/07/20 08:14:15;;;;;;;3.23;2.43;;;;;;;;;;5036158;28;20986;-69
2023/07/20 08:16:42;;;;;;;5.60;2.63;;;;;;;;;;5036586;28;20425;-69
2023/07/20 08:19:08;;;;;;;7.50;3.57;;;;;;;;;;5036619;28;20419;-69
2023/07/20 08:21:34;;;;;;;4.37;2.30;;;;;;;;;;5036579;28;20469;-69
2023/07/20 08:24:00;;;;;;;10.53;3.73;;;;;;;;;;5036574;28;20419;-69
2023/07/20 08:26:26;;;;;;;1.80;1.80;;;;;;;;;;5036200;28;20434;-69
2023/07/20 08:28:52;;;;;;;2.97;2.77;;;;;;;;;;5036366;28;20502;-70
2023/07/20 08:31:18;;;;;;;4.50;2.73;;;;;;;;;;5036327;28;20418;-70
2023/07/20 08:33:44;;;;;;;11.13;3.00;;;;;;;;;;5036040;28;20474;-69
2023/07/20 08:36:11;;;;;;;2.33;2.33;;;;;;;;;;5036013;28;20415;-69
2023/07/20 08:38:37;;;;;;;4.13;2.87;;;;;;;;;;5036329;28;20416;-69
2023/07/20 08:41:02;;;;;;;4.43;2.67;;;;;;;;;;5036207;28;20825;-67
2023/07/20 08:43:29;;;;;;;10.03;3.10;;;;;;;;;;5035932;28;20423;-69
2023/07/20 08:45:59;;;;;;;9.03;2.93;;;;;;;;;;5036005;28;20423;-70
2023/07/20 08:48:28;;;;;;;7.90;2.77;;;;;;;;;;5036118;28;20491;-64
2023/07/20 08:50:54;;;;;;;2.73;2.50;;;;;;;;;;5035790;28;20921;-64
2023/07/20 08:53:20;;;;;;;7.27;2.47;;;;;;;;;;5035567;28;20578;-64
2023/07/20 08:55:48;;;;;;;6.27;2.57;;;;;;;;;;5035725;28;20416;-64
2023/07/20 08:58:15;;;;;;;2.60;2.40;;;;;;;;;;5036037;28;20422;-64
2023/07/20 09:00:41;;;;;;;5.70;2.60;;;;;;;;;;5035790;28;20887;-64
2023/07/20 09:03:08;;;;;;;2.07;1.97;;;;;;;;;;5035573;28;20408;-64
2023/07/20 09:05:35;;;;;;;2.67;2.47;;;;;;;;;;5035721;28;20423;-64
2023/07/20 09:08:03;;;;;;;2.40;2.20;;;;;;;;;;5035803;28;20415;-64
2023/07/20 09:10:29;;;;;;;4.57;2.30;;;;;;;;;;5035653;28;20415;-64
2023/07/20 09:12:55;;;;;;;5.83;1.80;;;;;;;;;;5035628;28;20558;-64
2023/07/20 09:15:22;;;;;;;7.93;2.27;;;;;;;;;;5034616;28;20473;-64
2023/07/20 09:17:49;;;;;;;5.70;2.13;;;;;;;;;;5035192;28;20430;-64
2023/07/20 09:20:15;;;;;;;4.67;2.07;;;;;;;;;;5035466;28;20472;-64
2023/07/20 09:22:42;;;;;;;11.50;2.53;;;;;;;;;;5035235;28;20424;-65
2023/07/20 09:25:15;;;;;;;2.40;2.40;;;;;;;;;;5035407;28;20427;-64
2023/07/20 09:27:42;;;;;;;2.47;2.20;;;;;;;;;;5035087;28;20423;-64
2023/07/20 09:30:10;;;;;;;3.87;2.37;;;;;;;;;;5035314;28;20430;-65
2023/07/20 09:32:41;;;;;;;2.80;2.60;;;;;;;;;;5034958;28;20466;-63
2023/07/20 09:35:07;;;;;;;2.53;2.33;;;;;;;;;;5034830;28;20514;-64
2023/07/20 09:37:34;;;;;;;2.90;1.70;;;;;;;;;;5034752;28;20457;-64
2023/07/20 09:40:00;;;;;;;2.10;2.00;;;;;;;;;;5034971;28;20435;-64
2023/07/20 09:42:27;;;;;;;2.57;2.43;;;;;;;;;;5034949;28;20424;-64
2023/07/20 09:44:53;;;;;;;2.17;2.00;;;;;;;;;;5034813;28;20485;-65
2023/07/20 09:47:26;;;;;;;2.23;2.13;;;;;;;;;;5034732;28;20466;-64
2023/07/20 09:49:59;;;;;;;2.57;2.37;;;;;;;;;;5034673;28;20495;-65
2023/07/20 09:52:26;;;;;;;5.40;2.03;;;;;;;;;;5034598;28;20550;-64
2023/07/20 09:54:52;;;;;;;2.23;2.13;;;;;;;;;;5035097;28;20601;-64
2023/07/20 09:57:18;;;;;;;1.63;1.63;;;;;;;;;;5034769;28;20442;-65
2023/07/20 09:59:44;;;;;;;3.00;2.53;;;;;;;;;;5034768;28;20416;-64
2023/07/20 10:02:33;;;;;;;2.33;2.13;;;;;;;;;;5034649;28;20435;-64
2023/07/20 10:05:02;;;;;;;2.60;2.40;;;;;;;;;;5034679;28;20422;-64
2023/07/20 10:07:28;;;;;;;2.50;2.30;;;;;;;;;;5034887;28;20416;-64
2023/07/20 10:09:56;;;;;;;2.40;2.30;;;;;;;;;;5034230;28;20423;-64
2023/07/20 10:12:23;;;;;;;4.47;2.10;;;;;;;;;;5033957;28;20990;-70
2023/07/20 10:14:55;;;;;;;3.07;2.27;;;;;;;;;;5034043;28;20424;-68
2023/07/20 10:17:22;;;;;;;5.50;2.23;;;;;;;;;;5034099;28;20475;-68
2023/07/20 10:19:50;;;;;;;1.60;1.60;;;;;;;;;;5034356;28;20427;-69
2023/07/20 10:22:20;;;;;;;2.20;2.00;;;;;;;;;;5034347;28;20763;-68
2023/07/20 10:24:49;;;;;;;3.47;2.40;;;;;;;;;;5034433;28;20422;-68
2023/07/20 10:27:15;;;;;;;3.97;2.53;;;;;;;;;;5034138;28;20416;-68
2023/07/20 10:32:45;;;;;;;10.37;6.83;;;;;;;;;;5033728;28;20458;-68
2023/07/20 10:35:19;;;;;;;3.20;3.00;;;;;;;;;;5033842;28;20446;-68
2023/07/20 10:37:51;;;;;;;2.87;1.60;;;;;;;;;;5033703;28;20419;-69
2023/07/20 10:40:30;;;;;;;2.47;2.27;;;;;;;;;;5033574;28;20415;-68
2023/07/20 10:43:09;;;;;;;2.27;2.10;;;;;;;;;;5033835;28;20415;-68
2023/07/20 10:45:36;;;;;;;3.10;2.07;;;;;;;;;;5033745;28;20756;-68
2023/07/20 10:48:06;;;;;;;2.23;1.93;;;;;;;;;;5033995;28;20407;-68
2023/07/20 10:50:35;;;;;;;3.90;2.20;;;;;;;;;;5033932;28;20446;-68
2023/07/20 10:53:15;;;;;;;3.27;1.90;;;;;;;;;;5033154;28;20493;-68
2023/07/20 10:55:41;;;;;;;2.60;1.77;;;;;;;;;;5048655;28;20776;-68
2023/07/20 10:58:14;;;;;;;2.33;2.13;;;;;;;;;;5033514;28;20403;-68
2023/07/20 11:01:00;;;;;;;1.80;1.63;;;;;;;;;;5033586;28;20422;-68
2023/07/20 11:03:30;;;;;;;2.20;2.00;;;;;;;;;;5033288;28;21010;-68
2023/07/20 11:05:58;;;;;;;6.53;2.07;;;;;;;;;;5033241;28;20415;-68
2023/07/20 11:08:43;;;;;;;2.17;2.10;;;;;;;;;;5033073;28;20815;-67
2023/07/20 11:11:28;;;;;;;1.60;1.50;;;;;;;;;;5033427;28;20431;-68
2023/07/20 11:14:01;;;;;;;1.93;1.83;;;;;;;;;;5032871;28;20500;-68
2023/07/20 11:16:33;;;;;;;1.93;1.70;;;;;;;;;;5032852;28;20998;-67
2023/07/20 11:19:00;;;;;;;2.13;2.10;;;;;;;;;;5033213;28;20419;-68
2023/07/20 11:21:26;;;;;;;1.80;1.70;;;;;;;;;;5033219;28;20601;-67
2023/07/20 11:23:53;;;;;;;1.53;1.53;;;;;;;;;;5033104;28;20446;-67
2023/07/20 11:26:19;;;;;;;1.80;1.70;;;;;;;;;;5032777;28;20422;-65
2023/07/20 11:28:52;;;;;;;1.90;1.90;;;;;;;;;;5033031;28;20423;-65
2023/07/20 11:31:18;;;;;;;3.87;1.90;;;;;;;;;;5032923;28;20877;-68
2023/07/20 11:33:44;;;;;;;2.37;2.13;;;;;;;;;;5048073;28;20474;-68
2023/07/20 11:36:10;;;;;;;3.80;1.90;;;;;;;;;;5032860;28;20412;-68
2023/07/20 11:38:36;;;;;;;2.30;2.10;;;;;;;;;;5036062;28;20510;-69
2023/07/20 11:41:07;;;;;;;1.70;1.60;;;;;;;;;;5037093;28;20954;-69
2023/07/20 11:43:33;;;;;;;1.73;1.73;;;;;;;;;;5037073;28;20423;-68
2023/07/20 11:46:00;;;;;;;2.07;1.77;;;;;;;;;;5037060;28;20415;-68
2023/07/20 11:48:26;;;;;;;4.40;1.90;;;;;;;;;;5037450;28;20415;-68
2023/07/20 11:50:52;;;;;;;3.73;2.17;;;;;;;;;;5036753;28;20826;-70
2023/07/20 11:53:20;;;;;;;2.00;1.87;;;;;;;;;;5036390;28;20542;-70
2023/07/20 11:55:46;;;;;;;3.80;2.80;;;;;;;;;;5036939;28;20415;-69
2023/07/20 11:58:12;;;;;;;2.10;2.00;;;;;;;;;;5036763;28;20426;-69
2023/07/20 12:00:39;;;;;;;9.30;2.40;;;;;;;;;;5036782;28;20411;-70
2023/07/20 12:03:07;;;;;;;2.13;1.93;;;;;;;;;;5036585;28;20411;-70
2023/07/20 12:05:33;;;;;;;2.10;2.00;;;;;;;;;;5036281;28;20910;-69
2023/07/20 12:07:59;;;;;;;3.67;2.07;;;;;;;;;;5036498;28;20422;-69
2023/07/20 12:10:28;;;;;;;2.37;1.60;;;;;;;;;;5035772;28;20563;-70
2023/07/20 12:12:55;;;;;;;2.23;2.13;;;;;;;;;;5036452;28;20602;-69
2023/07/20 12:15:31;;;;;;;1.70;1.70;;;;;;;;;;5051662;28;20423;-69
2023/07/20 12:17:59;;;;;;;2.40;1.73;;;;;;;;;;5036810;28;20406;-70
2023/07/20 12:20:29;;;;;;;3.23;1.70;;;;;;;;;;5051806;28;20514;-71
2023/07/20 12:23:14;;;;;;;1.77;1.67;;;;;;;;;;5036663;28;20473;-70
2023/07/20 12:25:40;;;;;;;5.37;2.50;;;;;;;;;;5036553;28;20411;-70
2023/07/20 12:28:09;;;;;;;2.17;2.07;;;;;;;;;;5036259;28;20408;-71
2023/07/20 12:30:36;;;;;;;6.70;2.40;;;;;;;;;;5036092;28;20427;-70
2023/07/20 12:33:03;;;;;;;7.20;2.00;;;;;;;;;;5036129;28;20462;-71
2023/07/20 12:35:30;;;;;;;2.90;2.27;;;;;;;;;;5036312;28;20431;-70
2023/07/20 12:37:56;;;;;;;1.60;1.60;;;;;;;;;;5036047;28;20454;-70
2023/07/20 12:40:22;;;;;;;3.43;1.90;;;;;;;;;;5036311;28;20477;-70
2023/07/20 12:42:48;;;;;;;1.90;1.83;;;;;;;;;;5036067;28;20419;-70
2023/07/20 12:45:14;;;;;;;3.70;2.13;;;;;;;;;;5035880;28;20907;-71
2023/07/20 12:47:41;;;;;;;1.70;1.70;;;;;;;;;;5035733;28;20866;-70
2023/07/20 12:50:07;;;;;;;8.10;1.80;;;;;;;;;;5036063;28;20424;-69
2023/07/20 12:52:37;;;;;;;3.50;2.20;;;;;;;;;;5035758;28;20574;-70
2023/07/20 12:55:03;;;;;;;3.77;1.97;;;;;;;;;;5035972;28;20467;-70
2023/07/20 12:57:29;;;;;;;3.17;2.20;;;;;;;;;;5051253;28;20832;-71
2023/07/20 12:59:55;;;;;;;3.17;2.00;;;;;;;;;;5035608;28;20907;-69
2023/07/20 13:02:21;;;;;;;1.70;1.57;;;;;;;;;;5035877;28;20423;-69
2023/07/20 13:04:47;;;;;;;2.50;1.60;;;;;;;;;;5050882;28;20443;-70
2023/07/20 13:07:13;;;;;;;4.53;1.83;;;;;;;;;;5035763;28;20431;-69
2023/07/20 13:09:39;;;;;;;2.87;2.00;;;;;;;;;;5035468;28;20434;-69
2023/07/20 13:12:05;;;;;;;4.80;2.00;;;;;;;;;;5035722;28;20473;-69
2023/07/20 13:14:32;;;;;;;1.70;1.70;;;;;;;;;;5035194;28;20842;-70
2023/07/20 13:16:57;;;;;;;1.97;1.83;;;;;;;;;;5035380;28;20441;-70
2023/07/20 13:19:23;;;;;;;2.17;2.10;;;;;;;;;;5035590;28;20431;-69
2023/07/20 13:21:49;;;;;;;4.30;1.67;;;;;;;;;;5035351;28;20454;-70
2023/07/20 13:24:16;;;;;;;1.50;1.50;;;;;;;;;;5035390;28;20427;-69
2023/07/20 13:26:42;;;;;;;5.20;2.10;;;;;;;;;;5035183;28;20469;-69
2023/07/20 13:29:08;;;;;;;1.50;1.50;;;;;;;;;;5035696;28;20432;-70
2023/07/20 13:31:34;;;;;;;6.13;1.70;;;;;;;;;;5035459;28;20455;-70
2023/07/20 13:34:01;;;;;;;1.83;1.40;;;;;;;;;;5035214;28;20474;-69
2023/07/20 13:36:27;;;;;;;2.27;2.13;;;;;;;;;;5035023;28;20422;-70
2023/07/20 13:38:53;;;;;;;2.33;2.13;;;;;;;;;;5050974;28;20431;-70
2023/07/20 13:41:19;;;;;;;1.60;1.53;;;;;;;;;;5034831;28;20407;-70
2023/07/20 13:43:45;;;;;;;2.60;2.40;;;;;;;;;;5035191;28;20473;-70
2023/07/20 13:46:11;;;;;;;1.80;1.80;;;;;;;;;;5035314;28;20411;-71
2023/07/20 13:48:37;;;;;;;2.97;1.90;;;;;;;;;;5035007;28;20424;-71
2023/07/20 13:51:03;;;;;;;1.33;1.33;;;;;;;;;;5034982;28;20419;-70
2023/07/20 13:53:29;;;;;;;2.30;1.53;;;;;;;;;;5034546;28;20570;-70
2023/07/20 13:55:56;;;;;;;2.17;2.07;;;;;;;;;;5034823;28;20441;-69
2023/07/20 13:58:22;;;;;;;1.93;1.83;;;;;;;;;;5034464;28;20463;-70
2023/07/20 14:00:48;;;;;;;1.30;1.27;;;;;;;;;;5034045;28;20419;-69
2023/07/20 14:03:14;;;;;;;3.23;1.70;;;;;;;;;;5034763;28;20911;-70
2023/07/20 14:05:40;;;;;;;2.93;1.60;;;;;;;;;;5034387;28;20412;-70
2023/07/20 14:08:06;;;;;;;2.00;1.90;;;;;;;;;;5034658;28;20485;-70
2023/07/20 14:10:32;;;;;;;4.13;1.70;;;;;;;;;;5049624;28;20415;-69
2023/07/20 14:12:58;;;;;;;2.50;2.37;;;;;;;;;;5049575;28;20474;-69
2023/07/20 14:15:24;;;;;;;1.53;1.40;;;;;;;;;;5034425;28;20415;-70
2023/07/20 14:17:50;;;;;;;1.70;1.60;;;;;;;;;;5034218;28;20422;-71
2023/07/20 14:20:16;;;;;;;1.70;1.70;;;;;;;;;;5034173;28;20772;-69
2023/07/20 14:22:42;;;;;;;9.20;2.10;;;;;;;;;;5034029;28;20419;-70
2023/07/20 14:25:08;;;;;;;1.83;1.73;;;;;;;;;;5034309;28;20415;-69
2023/07/20 14:27:34;;;;;;;2.70;2.60;;;;;;;;;;5034286;28;20519;-70
2023/07/20 14:30:01;;;;;;;2.20;2.10;;;;;;;;;;5033920;28;20450;-70
2023/07/20 14:32:27;;;;;;;4.43;1.70;;;;;;;;;;5034046;28;20498;-69
2023/07/20 14:34:53;;;;;;;1.90;1.90;;;;;;;;;;5034127;28;20437;-70
2023/07/20 14:37:19;;;;;;;2.27;2.20;;;;;;;;;;5049145;28;20518;-70
2023/07/20 14:39:48;;;;;;;5.70;2.73;;;;;;;;;;5049115;28;20415;-70
2023/07/20 14:42:14;;;;;;;1.87;1.77;;;;;;;;;;5034041;28;20423;-69
2023/07/20 14:44:40;;;;;;;4.40;2.97;;;;;;;;;;5034020;28;20465;-70
2023/07/20 14:47:06;;;;;;;1.60;1.60;;;;;;;;;;5033862;28;20510;-70
2023/07/20 14:49:32;;;;;;;2.37;1.80;;;;;;;;;;5034111;28;20496;-69